Baton Rouge, LA (70894)

12:06 PM CST on December 18, 2014 (GMT -0600)
Pollard Estates | Change Station
CLOSE
Current Station
Personal Weather Station
Location: Baton Rouge, LA
Elevation: 26 ft
Nearby Weather Stations

Elev 26 ft 30.41 °N, 91.13 °W | Updated 2 seconds ago

Overcast
Overcast
64.2 °F
Feels Like 64.2 °F
N
0.0
Wind Variable Wind from North
Gusts 0.0 mph

Today
High -- | Low -- °F
--% Chance of Precip.
Yesterday
High -- | Low -- °F
Precip. -- in
6:55 AM 5:07 PM
Waning Crescent, 13% visible
Pressure 30.12 in
Visibility 10.0 miles
Clouds Scattered Clouds 3600 ft
Mostly Cloudy 4400 ft
Overcast 7000 ft
Dew Point 55 °F
Humidity 73%
Rainfall 0.00 in
Snow Depth Not available.
UV 1 out of 12
Pollen 4.20 out of 12
Air Quality Not available.
Flu Activity Not available.
METAR KBTR 181753Z 13006KT 10SM -RA SCT036 BKN044 OVC070 17/11 A3013 RMK AO2 RAB43 SLP200 P0000 60000 T01670111 10172 20083 58014

More Conditions Fewer Conditions

Pressure 30.12 in
Visibility 10.0 miles
Clouds Scattered Clouds 3600 ft
Mostly Cloudy 4400 ft
Overcast 7000 ft
Dew Point 55 °F
Humidity 73%
Rainfall 0.00 in
Snow Depth Not available.
UV 1 out of 12
Pollen 4.20 out of 12
Air Quality Not available.
Flu Activity Not available.
METAR KBTR 181753Z 13006KT 10SM -RA SCT036 BKN044 OVC070 17/11 A3013 RMK AO2 RAB43 SLP200 P0000 60000 T01670111 10172 20083 58014

More Conditions Fewer Conditions

10-Day Weather Forecast

Almanac

Astronomy

Dec. 18, 2014 Rise Set
Actual Time
Civil Twilight
Nautical Twilight
Astronomical Twilight
Moon
Length of Visible Light
Length of Day
Tomorrow will be .
, % of the Moon is Illuminated

Today's Extremes

State Highs State Lows

Community

WunderPhotos

Upload Photos

1,778,969 photos uploaded!

WunderBlogs® & News

Nearby

Air Quality

  Air Quality AQ Index Pollutant
Not available.

Snow Depth

Station Depth Elevation

Earthquake Activity

City Distance Mag. Time & Date
Minimum magnitude displayed is 2.5.

Coastal Water Temperatures

Place Temperature

Nearby Weather Stations